Terminal Aerodrome Forecast
Issued by NWS

Current Version | Previous Version | Text Only | Print | Product List | Glossary On
Versions: 1 2 3 4 5 6 7 8 9 10 11 12 13 14 15
000
FTUS46 KMTR 011736
TAFSNS
TAF
KSNS 011736Z 0118/0218 10005KT P6SM BKN200
     FM011900 30007KT P6SM OVC200
     FM012100 29012KT P6SM OVC200
     FM020500 30006KT P6SM OVC005
     FM020800 00000KT P6SM OVC005
     FM021600 VRB04KT P6SM BKN200=

USA.gov is the U.S. government's official web portal to all federal, state and local government web resources and services.